createdAt,value
2022-11-03T00:01:05.274Z,68.9
2022-11-03T00:05:58.486Z,69
2022-11-03T00:08:25.225Z,69.1
2022-11-03T00:10:51.738Z,69.1
2022-11-03T00:13:18.367Z,69.1
2022-11-03T00:15:44.990Z,69.1
2022-11-03T00:18:10.109Z,69.1
2022-11-03T00:20:36.719Z,69.1
2022-11-03T00:23:03.345Z,68.9
2022-11-03T00:25:29.978Z,69
2022-11-03T00:30:23.209Z,69.1
2022-11-03T00:32:49.845Z,69.1
2022-11-03T00:35:16.462Z,69.1
2022-11-03T00:37:43.090Z,69.2
2022-11-03T00:40:09.729Z,69.3
2022-11-03T00:42:36.476Z,69.3
2022-11-03T00:45:02.974Z,69.3
2022-11-03T00:47:29.577Z,69.5
2022-11-03T00:49:56.208Z,69.7
2022-11-03T00:54:47.982Z,69.7
2022-11-03T00:57:14.595Z,69.8
2022-11-03T00:59:41.224Z,69.8
2022-11-03T01:02:07.828Z,69.3
2022-11-03T01:04:34.482Z,69.1
2022-11-03T01:07:01.114Z,69.5
2022-11-03T01:09:27.742Z,69.6
2022-11-03T01:11:54.336Z,69.8
2022-11-03T01:14:20.949Z,69.8
2022-11-03T01:16:47.570Z,69.7
2022-11-03T01:19:14.202Z,69.8
2022-11-03T01:21:39.369Z,69.8
2022-11-03T01:24:04.459Z,69.9
2022-11-03T01:26:31.092Z,69.7
2022-11-03T01:28:57.702Z,69.7
2022-11-03T01:31:24.349Z,69.7
2022-11-03T01:33:50.955Z,69.8
2022-11-03T01:36:17.586Z,70
2022-11-03T01:38:44.192Z,70
2022-11-03T01:41:10.827Z,70.2
2022-11-03T01:43:37.443Z,70.2
2022-11-03T01:46:04.081Z,70.4
2022-11-03T01:48:30.696Z,70.1
2022-11-03T01:50:55.849Z,69.9
2022-11-03T01:53:20.954Z,69.7
2022-11-03T01:55:47.580Z,69.7
2022-11-03T01:58:14.194Z,69.6
2022-11-03T02:00:40.820Z,69.6
2022-11-03T02:03:07.433Z,69.6
2022-11-03T02:05:34.060Z,69.7
2022-11-03T02:08:00.687Z,69.8
2022-11-03T02:10:27.325Z,70
2022-11-03T02:12:53.931Z,70.2
2022-11-03T02:15:20.556Z,70.2
2022-11-03T02:17:47.187Z,70.3
2022-11-03T02:20:13.855Z,70.4
2022-11-03T02:22:40.440Z,70.4
2022-11-03T02:25:05.544Z,70.5
2022-11-03T02:27:32.178Z,70.6
2022-11-03T02:29:58.803Z,70.6
2022-11-03T02:32:25.449Z,70.6
2022-11-03T02:34:52.115Z,70.6
2022-11-03T02:37:18.678Z,70.7
2022-11-03T02:39:45.290Z,70.7
2022-11-03T02:42:11.926Z,70.7
2022-11-03T02:44:38.563Z,70.6
2022-11-03T02:49:31.837Z,71
2022-11-03T02:51:58.448Z,70.8
2022-11-03T02:54:25.038Z,70.8
2022-11-03T02:56:50.161Z,70.8
2022-11-03T02:59:16.782Z,70.8
2022-11-03T03:01:43.409Z,71
2022-11-03T03:04:10.037Z,70.8
2022-11-03T03:06:36.658Z,70.7
2022-11-03T03:09:03.296Z,70.7
2022-11-03T03:11:29.891Z,70.8
2022-11-03T03:13:56.533Z,71
2022-11-03T03:16:23.152Z,71.2
2022-11-03T03:18:49.759Z,71.2
2022-11-03T03:21:16.382Z,71.3
2022-11-03T03:23:43.009Z,71.2
2022-11-03T03:26:09.643Z,71.2
2022-11-03T03:28:34.748Z,71.3
2022-11-03T03:31:01.376Z,71.3
2022-11-03T03:33:28.076Z,71.3
2022-11-03T03:35:54.673Z,71.3
2022-11-03T03:38:21.264Z,71.3
2022-11-03T03:40:47.873Z,71.3
2022-11-03T03:43:14.499Z,71.3
2022-11-03T03:45:41.124Z,71.3
2022-11-03T03:48:07.832Z,71.2
2022-11-03T03:50:34.378Z,71.2
2022-11-03T03:53:00.986Z,71.2
2022-11-03T03:55:27.608Z,71.2
2022-11-03T03:57:54.259Z,71
2022-11-03T04:00:19.378Z,71.1
2022-11-03T04:02:45.989Z,71.1
2022-11-03T04:05:12.617Z,71.1
2022-11-03T04:07:39.240Z,70.8
2022-11-03T04:10:05.855Z,70.8
2022-11-03T04:12:32.481Z,70.8
2022-11-03T04:14:59.168Z,71
2022-11-03T04:17:25.754Z,71
2022-11-03T04:19:52.418Z,71.1
2022-11-03T04:22:19.003Z,71.2
2022-11-03T04:24:45.602Z,71.2
2022-11-03T04:27:12.226Z,71.2
2022-11-03T04:29:38.849Z,70.5
2022-11-03T04:32:03.989Z,70.6
2022-11-03T04:34:30.584Z,71
2022-11-03T04:36:57.315Z,71.2
2022-11-03T04:39:23.896Z,71.2
2022-11-03T04:41:50.509Z,71.2
2022-11-03T04:44:17.115Z,71.1
2022-11-03T04:46:43.722Z,70.6
2022-11-03T04:49:10.348Z,70.5
2022-11-03T04:51:36.968Z,70.3
2022-11-03T04:54:03.594Z,70.1
2022-11-03T04:56:30.237Z,70
2022-11-03T04:58:56.858Z,70
2022-11-03T05:01:23.465Z,69.7
2022-11-03T05:03:48.584Z,69.6
2022-11-03T05:06:15.220Z,69.4
2022-11-03T05:11:08.455Z,70
2022-11-03T05:13:35.075Z,70.1
2022-11-03T05:16:01.738Z,70.3
2022-11-03T05:18:28.323Z,70.5
2022-11-03T05:20:54.971Z,70.6
2022-11-03T05:23:21.563Z,70.8
2022-11-03T05:25:48.189Z,71
2022-11-03T05:28:14.892Z,71.1
2022-11-03T05:30:41.452Z,71.1
2022-11-03T05:33:08.099Z,71.1
2022-11-03T05:35:33.227Z,71.1
2022-11-03T05:37:59.820Z,71.1
2022-11-03T05:40:26.476Z,71.2
2022-11-03T05:42:53.065Z,71.2
2022-11-03T05:45:19.692Z,71.2
2022-11-03T05:47:46.317Z,71.3
2022-11-03T05:50:12.947Z,71.4
2022-11-03T05:52:39.573Z,71.4
2022-11-03T05:55:06.178Z,71.4
2022-11-03T05:57:32.800Z,71.5
2022-11-03T05:59:59.453Z,71.5
2022-11-03T06:02:26.054Z,71.5
2022-11-03T06:04:52.721Z,71.4
2022-11-03T06:07:17.849Z,71.3
2022-11-03T06:09:44.441Z,71.3
2022-11-03T06:12:11.053Z,71.3
2022-11-03T06:14:37.710Z,71.1
2022-11-03T06:17:04.318Z,71.1
2022-11-03T06:19:30.929Z,71.1
2022-11-03T06:21:57.555Z,71.1
2022-11-03T06:24:24.172Z,71
2022-11-03T06:26:50.798Z,70.8
2022-11-03T06:29:17.437Z,70.7
2022-11-03T06:31:44.050Z,70.7
2022-11-03T06:34:10.682Z,70.7
2022-11-03T06:36:37.316Z,70.5
2022-11-03T06:39:02.409Z,70.2
2022-11-03T06:41:29.101Z,70
2022-11-03T06:43:55.668Z,69.5
2022-11-03T06:46:22.289Z,68.9
2022-11-03T06:48:48.919Z,68.3
2022-11-03T06:51:15.535Z,67.3
2022-11-03T06:53:42.160Z,65.3
2022-11-03T06:56:08.806Z,63
2022-11-03T06:58:35.431Z,65.8
2022-11-03T07:01:02.017Z,84.7
2022-11-03T07:03:28.709Z,94
2022-11-03T07:05:55.286Z,100
2022-11-03T07:08:21.909Z,100
2022-11-03T07:10:47.028Z,100
2022-11-03T07:13:13.653Z,100
2022-11-03T07:15:40.281Z,100
2022-11-03T07:18:06.906Z,100
2022-11-03T07:20:33.535Z,98.2
2022-11-03T07:23:00.139Z,95.9
2022-11-03T07:25:26.849Z,94.6
2022-11-03T07:27:53.428Z,87.3
2022-11-03T07:30:20.035Z,89.5
2022-11-03T07:32:46.645Z,87.7
2022-11-03T07:35:13.297Z,92.6
2022-11-03T07:37:39.933Z,93.8
2022-11-03T07:40:06.513Z,98.7
2022-11-03T07:42:31.738Z,99.5
2022-11-03T07:44:58.310Z,100
2022-11-03T07:47:23.445Z,100
2022-11-03T07:49:50.017Z,100
2022-11-03T07:52:16.678Z,99.7
2022-11-03T07:54:43.250Z,91.7
2022-11-03T07:57:09.898Z,85.8
2022-11-03T07:59:36.503Z,89.9
2022-11-03T08:02:03.234Z,97
2022-11-03T08:04:29.826Z,98.8
2022-11-03T08:06:56.408Z,100
2022-11-03T08:09:23.039Z,99.7
2022-11-03T08:11:49.643Z,99.6
2022-11-03T08:14:16.317Z,98.7
2022-11-03T08:16:42.911Z,100
2022-11-03T08:19:08.010Z,100
2022-11-03T08:21:34.621Z,100
2022-11-03T08:24:01.248Z,100
2022-11-03T08:26:27.875Z,98.3
2022-11-03T08:28:54.744Z,100
2022-11-03T08:31:21.121Z,100
2022-11-03T08:36:14.437Z,97.8
2022-11-03T08:38:41.005Z,96.5
2022-11-03T08:41:07.613Z,94.9
2022-11-03T08:43:34.232Z,94
2022-11-03T08:46:00.866Z,95
2022-11-03T08:48:27.490Z,87.8
2022-11-03T08:50:52.606Z,92.7
2022-11-03T08:53:19.237Z,93.6
2022-11-03T08:55:45.851Z,90.4
2022-11-03T08:58:12.473Z,90.7
2022-11-03T09:00:39.089Z,88.3
2022-11-03T09:03:05.773Z,87.6
2022-11-03T09:05:32.376Z,86.4
2022-11-03T09:07:58.968Z,87.1
2022-11-03T09:10:25.582Z,89.2
2022-11-03T09:12:52.204Z,91.1
2022-11-03T09:15:18.840Z,81.7
2022-11-03T09:17:45.456Z,82.7
2022-11-03T09:20:12.110Z,87.5
2022-11-03T09:22:37.209Z,85.5
2022-11-03T09:25:03.860Z,81.5
2022-11-03T09:27:30.464Z,77.6
2022-11-03T09:29:57.072Z,74.6
2022-11-03T09:32:23.738Z,75.4
2022-11-03T09:34:50.353Z,77.1
2022-11-03T09:37:16.980Z,80.7
2022-11-03T09:39:43.577Z,87.5
2022-11-03T09:42:10.203Z,88
2022-11-03T09:44:36.908Z,88
2022-11-03T09:47:03.591Z,94.2
2022-11-03T09:49:30.089Z,96.9
2022-11-03T09:51:56.857Z,96.7
2022-11-03T09:54:21.824Z,98.3
2022-11-03T10:01:41.721Z,97.2
2022-11-03T10:04:08.307Z,97.6
2022-11-03T10:06:34.937Z,95.7
2022-11-03T10:09:01.550Z,98.2
2022-11-03T10:11:28.194Z,96.2
2022-11-03T10:13:54.804Z,100
2022-11-03T10:18:48.050Z,99.3
2022-11-03T10:21:13.438Z,98.5
2022-11-03T10:23:38.337Z,99.1
2022-11-03T10:26:04.940Z,100
2022-11-03T10:28:31.555Z,100
2022-11-03T10:30:58.175Z,100
2022-11-03T10:33:24.814Z,100
2022-11-03T10:35:51.417Z,100
2022-11-03T10:38:18.047Z,100
2022-11-03T10:40:44.671Z,100
2022-11-03T10:43:11.313Z,100
2022-11-03T10:45:37.916Z,100
2022-11-03T10:48:03.038Z,100
2022-11-03T10:50:28.177Z,100
2022-11-03T10:52:54.806Z,100
2022-11-03T10:55:21.419Z,100
2022-11-03T10:57:48.037Z,100
2022-11-03T11:00:14.769Z,100
2022-11-03T11:02:41.292Z,100
2022-11-03T11:05:08.165Z,100
2022-11-03T11:07:34.523Z,100
2022-11-03T11:10:01.173Z,100
2022-11-03T11:12:27.781Z,100
2022-11-03T11:14:54.400Z,100
2022-11-03T11:17:21.026Z,97.6
2022-11-03T11:19:47.645Z,95
2022-11-03T11:22:12.764Z,96.1
2022-11-03T11:24:39.386Z,93.4
2022-11-03T11:27:06.014Z,95.6
2022-11-03T11:29:32.643Z,94.6
2022-11-03T11:31:59.269Z,97.9
2022-11-03T11:34:25.891Z,95.3
2022-11-03T11:36:52.499Z,98.9
2022-11-03T11:39:19.126Z,100
2022-11-03T11:41:45.753Z,98.5
2022-11-03T11:44:12.446Z,97.7
2022-11-03T11:46:38.993Z,100
2022-11-03T11:49:05.623Z,100
2022-11-03T11:51:32.261Z,100
2022-11-03T11:53:57.363Z,100
2022-11-03T11:56:24.006Z,99.6
2022-11-03T11:58:50.613Z,100
2022-11-03T12:01:17.260Z,100
2022-11-03T12:03:43.853Z,98.7
2022-11-03T12:06:10.475Z,100
2022-11-03T12:08:37.128Z,100
2022-11-03T12:11:03.745Z,99.8
2022-11-03T12:13:30.341Z,100
2022-11-03T12:15:56.970Z,99.2
2022-11-03T12:18:23.597Z,99.8
2022-11-03T12:20:50.271Z,100
2022-11-03T12:23:16.879Z,100
2022-11-03T12:25:43.466Z,100
2022-11-03T12:28:08.594Z,100
2022-11-03T12:30:35.213Z,99.7
2022-11-03T12:33:01.868Z,100
2022-11-03T12:35:28.482Z,100
2022-11-03T12:37:55.093Z,100
2022-11-03T12:40:21.698Z,100
2022-11-03T12:42:48.333Z,100
2022-11-03T12:45:14.963Z,100
2022-11-03T12:47:41.617Z,100
2022-11-03T12:50:08.203Z,100
2022-11-03T12:52:34.816Z,100
2022-11-03T12:55:01.461Z,100
2022-11-03T12:57:28.054Z,100
2022-11-03T12:59:53.238Z,100
2022-11-03T13:02:19.821Z,100
2022-11-03T13:04:46.464Z,100
2022-11-03T13:07:13.080Z,100
2022-11-03T13:09:39.675Z,100
2022-11-03T13:12:06.308Z,100
2022-11-03T13:14:32.956Z,100
2022-11-03T13:16:59.546Z,100
2022-11-03T13:19:26.178Z,100
2022-11-03T13:21:52.793Z,100
2022-11-03T13:24:19.416Z,100
2022-11-03T13:26:46.032Z,100
2022-11-03T13:29:12.672Z,100
2022-11-03T13:31:39.289Z,100
2022-11-03T13:34:04.416Z,100
2022-11-03T13:36:31.044Z,100
2022-11-03T13:38:57.721Z,100
2022-11-03T13:41:24.307Z,100
2022-11-03T13:43:51.068Z,100
2022-11-03T13:46:17.644Z,100
2022-11-03T13:48:44.166Z,100
2022-11-03T13:51:10.876Z,100
2022-11-03T13:56:04.120Z,100
2022-11-03T13:58:30.646Z,100
2022-11-03T14:00:57.284Z,100
2022-11-03T14:03:23.983Z,100
2022-11-03T14:05:49.126Z,100
2022-11-03T14:08:15.640Z,100
2022-11-03T14:10:42.388Z,100
2022-11-03T14:13:09.002Z,100
2022-11-03T14:15:35.661Z,100
2022-11-03T14:18:02.247Z,100
2022-11-03T14:20:28.864Z,100
2022-11-03T14:22:55.452Z,100
2022-11-03T14:25:22.056Z,100
2022-11-03T14:27:48.759Z,100
2022-11-03T14:30:15.327Z,100
2022-11-03T14:32:41.979Z,100
2022-11-03T14:35:08.565Z,100
2022-11-03T14:37:33.662Z,100
2022-11-03T14:40:00.327Z,100
2022-11-03T14:42:26.933Z,100
2022-11-03T14:44:53.520Z,100
2022-11-03T14:47:20.156Z,100
2022-11-03T14:49:46.723Z,100
2022-11-03T14:52:13.359Z,100
2022-11-03T14:54:39.988Z,100
2022-11-03T14:57:06.646Z,100
2022-11-03T14:59:33.225Z,100
2022-11-03T15:01:59.844Z,100
2022-11-03T15:04:26.491Z,100
2022-11-03T15:06:53.339Z,100
2022-11-03T15:09:19.736Z,100
2022-11-03T15:11:46.336Z,100
2022-11-03T15:14:11.481Z,100
2022-11-03T15:16:38.092Z,100
2022-11-03T15:19:04.749Z,100
2022-11-03T15:21:31.341Z,100
2022-11-03T15:23:57.964Z,100
2022-11-03T15:26:24.580Z,100
2022-11-03T15:28:51.217Z,100
2022-11-03T15:31:17.830Z,100
2022-11-03T15:33:44.445Z,100
2022-11-03T15:36:11.079Z,100
2022-11-03T15:38:37.697Z,100
2022-11-03T15:41:04.317Z,100
2022-11-03T15:43:30.936Z,100
2022-11-03T15:45:56.118Z,100
2022-11-03T15:48:22.709Z,100
2022-11-03T15:50:49.308Z,100
2022-11-03T15:55:42.568Z,100
2022-11-03T15:58:07.714Z,100
2022-11-03T16:00:34.316Z,100
2022-11-03T16:03:00.937Z,100
2022-11-03T16:05:27.549Z,100
2022-11-03T16:07:54.187Z,100
2022-11-03T16:10:20.819Z,100
2022-11-03T16:12:47.437Z,100
2022-11-03T16:15:14.062Z,100
2022-11-03T16:17:40.677Z,100
2022-11-03T16:20:08.747Z,100
2022-11-03T16:25:00.554Z,100
2022-11-03T16:27:27.215Z,100
2022-11-03T16:29:52.294Z,100
2022-11-03T16:32:18.907Z,100
2022-11-03T16:34:45.545Z,100
2022-11-03T16:37:12.222Z,100
2022-11-03T16:39:38.780Z,100
2022-11-03T16:42:05.409Z,100
2022-11-03T16:44:32.038Z,100
2022-11-03T16:46:58.662Z,100
2022-11-03T16:51:51.899Z,100
2022-11-03T16:54:18.519Z,100
2022-11-03T16:56:45.144Z,100
2022-11-03T16:59:11.768Z,100
2022-11-03T17:01:36.885Z,100
2022-11-03T17:04:03.504Z,100
2022-11-03T17:06:30.133Z,100
2022-11-03T17:08:56.759Z,100
2022-11-03T17:11:23.376Z,100
2022-11-03T17:16:16.625Z,100
2022-11-03T17:18:43.240Z,100
2022-11-03T17:21:09.859Z,100
2022-11-03T17:23:36.500Z,100
2022-11-03T17:26:03.117Z,100
2022-11-03T17:28:29.773Z,100
2022-11-03T17:30:56.362Z,100
2022-11-03T17:33:21.502Z,100
2022-11-03T17:35:48.100Z,100
2022-11-03T17:40:41.360Z,99.9
2022-11-03T17:43:06.485Z,99.6
2022-11-03T17:45:33.105Z,99.5
2022-11-03T17:47:58.233Z,99.3
2022-11-03T17:50:24.860Z,98.2
2022-11-03T17:52:51.482Z,97.2
2022-11-03T17:55:18.119Z,96.7
2022-11-03T17:57:44.855Z,94.5
2022-11-03T18:00:11.468Z,94.3
2022-11-03T18:02:38.053Z,94.9
2022-11-03T18:05:04.710Z,95.2
2022-11-03T18:07:31.326Z,94.8
2022-11-03T18:09:56.347Z,93.8
2022-11-03T18:12:21.511Z,93.2
2022-11-03T18:14:48.161Z,91.6
2022-11-03T18:19:41.415Z,89.5
2022-11-03T18:22:08.759Z,89.7
2022-11-03T18:24:34.622Z,88.2
2022-11-03T18:29:27.908Z,88.7
2022-11-03T18:34:21.142Z,89
2022-11-03T18:39:14.320Z,89
2022-11-03T18:41:40.956Z,89.3
2022-11-03T18:44:06.093Z,89.9
2022-11-03T18:51:24.445Z,90.3
2022-11-03T18:53:49.596Z,90.4
2022-11-03T18:56:14.718Z,90.7
2022-11-03T18:58:41.377Z,90.3
2022-11-03T19:03:34.578Z,91.3
2022-11-03T19:06:01.240Z,92.6
2022-11-03T19:08:27.856Z,92.9
2022-11-03T19:10:54.550Z,93.6
2022-11-03T19:13:21.077Z,93
2022-11-03T19:15:47.763Z,91.5
2022-11-03T19:18:14.344Z,91.5
2022-11-03T19:20:40.980Z,88.4
2022-11-03T19:23:07.560Z,87.5
2022-11-03T19:28:00.835Z,87.2
2022-11-03T19:32:52.559Z,84.3
2022-11-03T19:37:45.958Z,83.7
2022-11-03T19:40:12.572Z,83.5
2022-11-03T19:42:39.082Z,82.6
2022-11-03T19:45:05.668Z,81.1
2022-11-03T19:47:32.322Z,80.5
2022-11-03T19:52:25.533Z,81.9
2022-11-03T19:54:52.158Z,82.9
2022-11-03T19:57:18.856Z,82.6
2022-11-03T19:59:45.405Z,81.6
2022-11-03T20:02:10.521Z,82.7
2022-11-03T20:04:37.156Z,82.1
2022-11-03T20:07:03.785Z,81.9
2022-11-03T20:11:57.032Z,78.2
2022-11-03T20:16:50.282Z,76
2022-11-03T20:19:16.889Z,74.3
2022-11-03T20:24:10.132Z,72.1
2022-11-03T20:26:36.775Z,71.4
2022-11-03T20:29:03.401Z,71.1
2022-11-03T20:31:30.012Z,70.8
2022-11-03T20:33:55.150Z,70.4
2022-11-03T20:36:21.765Z,69.6
2022-11-03T20:41:15.023Z,68.5
2022-11-03T20:46:08.263Z,67.4
2022-11-03T20:48:34.873Z,66.2
2022-11-03T20:51:01.514Z,65.7
2022-11-03T20:53:28.126Z,65.4
2022-11-03T20:58:21.389Z,64.6
2022-11-03T21:00:48.006Z,64.4
2022-11-03T21:05:41.269Z,63.7
2022-11-03T21:08:06.379Z,63.5
2022-11-03T21:10:33.037Z,63.4
2022-11-03T21:12:59.633Z,63.3
2022-11-03T21:17:52.864Z,63
2022-11-03T21:20:19.499Z,62.7
2022-11-03T21:22:46.117Z,62.4
2022-11-03T21:30:05.988Z,61.7
2022-11-03T21:32:32.614Z,61.4
2022-11-03T21:34:59.260Z,61.2
2022-11-03T21:37:25.875Z,61
2022-11-03T21:39:50.991Z,60.8
2022-11-03T21:42:17.618Z,60.4
2022-11-03T21:44:44.215Z,60.3
2022-11-03T21:47:10.836Z,60.1
2022-11-03T21:49:37.473Z,59.9
2022-11-03T21:54:30.782Z,59.7
2022-11-03T21:59:23.970Z,59.4
2022-11-03T22:04:17.219Z,59.1
2022-11-03T22:06:43.825Z,59
2022-11-03T22:11:37.096Z,58.8
2022-11-03T22:14:02.258Z,58.7
2022-11-03T22:23:48.718Z,58.3
2022-11-03T22:26:15.332Z,58.3
2022-11-03T22:28:41.960Z,58.3
2022-11-03T22:31:08.581Z,58.1
2022-11-03T22:33:35.202Z,58
2022-11-03T22:36:01.821Z,58
2022-11-03T22:38:28.484Z,57.9
2022-11-03T22:43:21.681Z,57.6
2022-11-03T22:45:46.837Z,57.6
2022-11-03T22:48:13.458Z,57.5
2022-11-03T22:50:40.067Z,57.5
2022-11-03T22:53:06.687Z,57.4
2022-11-03T22:55:33.303Z,57.3
2022-11-03T22:57:59.960Z,57.3
2022-11-03T23:00:26.564Z,57.3
2022-11-03T23:02:53.193Z,57.2
2022-11-03T23:05:19.803Z,57.2
2022-11-03T23:07:46.540Z,57.2
2022-11-03T23:10:13.073Z,57.2
2022-11-03T23:12:39.709Z,57.2
2022-11-03T23:15:06.334Z,57.2
2022-11-03T23:17:32.954Z,57.2
2022-11-03T23:19:58.064Z,57.2
2022-11-03T23:22:23.188Z,57.2
2022-11-03T23:24:49.799Z,57.3
2022-11-03T23:27:16.430Z,57.3
2022-11-03T23:29:43.055Z,57.3
2022-11-03T23:32:09.693Z,57.3
2022-11-03T23:34:36.300Z,57.4
2022-11-03T23:37:02.932Z,57.3
2022-11-03T23:39:29.543Z,57.3
2022-11-03T23:44:22.781Z,57.3
2022-11-03T23:46:49.427Z,57.4
2022-11-03T23:49:16.080Z,57.3
2022-11-03T23:51:42.666Z,57.3
2022-11-03T23:54:09.298Z,57.4
2022-11-03T23:56:34.414Z,57.4
2022-11-03T23:59:01.061Z,57.4
